sensor_id;sensor_type;location;lat;lon;timestamp;P1;durP1;ratioP1;P2;durP2;ratioP2
6027;SDS011;3042;43.194;27.646;2022-11-15T00:01:16;66.03;;;61.47;;
6027;SDS011;3042;43.194;27.646;2022-11-15T00:03:44;63.87;;;58.83;;
6027;SDS011;3042;43.194;27.646;2022-11-15T00:06:12;61.60;;;57.70;;
6027;SDS011;3042;43.194;27.646;2022-11-15T00:08:42;66.17;;;61.23;;
6027;SDS011;3042;43.194;27.646;2022-11-15T00:11:14;61.83;;;57.43;;
6027;SDS011;3042;43.194;27.646;2022-11-15T00:13:46;61.13;;;56.37;;
6027;SDS011;3042;43.194;27.646;2022-11-15T00:16:14;65.13;;;61.00;;
6027;SDS011;3042;43.194;27.646;2022-11-15T00:18:43;65.57;;;61.07;;
6027;SDS011;3042;43.194;27.646;2022-11-15T00:21:12;60.80;;;56.70;;
6027;SDS011;3042;43.194;27.646;2022-11-15T00:23:44;67.87;;;62.90;;
6027;SDS011;3042;43.194;27.646;2022-11-15T00:26:12;62.30;;;58.10;;
6027;SDS011;3042;43.194;27.646;2022-11-15T00:28:40;63.40;;;59.13;;
6027;SDS011;3042;43.194;27.646;2022-11-15T00:31:09;63.60;;;59.63;;
6027;SDS011;3042;43.194;27.646;2022-11-15T00:33:39;61.97;;;58.27;;
6027;SDS011;3042;43.194;27.646;2022-11-15T00:36:09;59.47;;;55.67;;
6027;SDS011;3042;43.194;27.646;2022-11-15T00:38:37;61.53;;;57.27;;
6027;SDS011;3042;43.194;27.646;2022-11-15T00:41:09;60.17;;;55.27;;
6027;SDS011;3042;43.194;27.646;2022-11-15T00:43:43;57.83;;;54.10;;
6027;SDS011;3042;43.194;27.646;2022-11-15T00:46:11;62.47;;;57.60;;
6027;SDS011;3042;43.194;27.646;2022-11-15T00:48:39;62.17;;;57.83;;
6027;SDS011;3042;43.194;27.646;2022-11-15T00:51:06;61.80;;;58.10;;
6027;SDS011;3042;43.194;27.646;2022-11-15T00:53:33;59.13;;;54.90;;
6027;SDS011;3042;43.194;27.646;2022-11-15T00:56:01;64.23;;;59.67;;
6027;SDS011;3042;43.194;27.646;2022-11-15T00:58:29;65.87;;;61.60;;
6027;SDS011;3042;43.194;27.646;2022-11-15T01:01:05;63.80;;;59.50;;
6027;SDS011;3042;43.194;27.646;2022-11-15T01:03:33;64.30;;;58.20;;
6027;SDS011;3042;43.194;27.646;2022-11-15T01:06:01;64.53;;;60.60;;
6027;SDS011;3042;43.194;27.646;2022-11-15T01:08:29;66.00;;;61.60;;
6027;SDS011;3042;43.194;27.646;2022-11-15T01:10:59;62.37;;;57.97;;
6027;SDS011;3042;43.194;27.646;2022-11-15T01:13:30;66.80;;;60.90;;
6027;SDS011;3042;43.194;27.646;2022-11-15T01:15:58;65.80;;;61.70;;
6027;SDS011;3042;43.194;27.646;2022-11-15T01:18:26;63.63;;;59.50;;
6027;SDS011;3042;43.194;27.646;2022-11-15T01:20:53;64.20;;;59.80;;
6027;SDS011;3042;43.194;27.646;2022-11-15T01:23:20;69.40;;;63.30;;
6027;SDS011;3042;43.194;27.646;2022-11-15T01:25:47;66.87;;;61.67;;
6027;SDS011;3042;43.194;27.646;2022-11-15T01:28:14;61.77;;;57.60;;
6027;SDS011;3042;43.194;27.646;2022-11-15T01:30:43;68.07;;;62.83;;
6027;SDS011;3042;43.194;27.646;2022-11-15T01:33:12;66.20;;;61.80;;
6027;SDS011;3042;43.194;27.646;2022-11-15T01:35:40;67.67;;;62.17;;
6027;SDS011;3042;43.194;27.646;2022-11-15T01:38:11;66.60;;;61.77;;
6027;SDS011;3042;43.194;27.646;2022-11-15T01:40:43;65.47;;;61.03;;
6027;SDS011;3042;43.194;27.646;2022-11-15T01:43:21;63.83;;;58.90;;
6027;SDS011;3042;43.194;27.646;2022-11-15T01:45:59;64.73;;;59.83;;
6027;SDS011;3042;43.194;27.646;2022-11-15T01:48:34;62.47;;;58.80;;
6027;SDS011;3042;43.194;27.646;2022-11-15T01:51:04;61.37;;;57.37;;
6027;SDS011;3042;43.194;27.646;2022-11-15T01:53:36;61.57;;;57.57;;
6027;SDS011;3042;43.194;27.646;2022-11-15T01:56:08;70.23;;;64.33;;
6027;SDS011;3042;43.194;27.646;2022-11-15T01:58:40;64.57;;;60.57;;
6027;SDS011;3042;43.194;27.646;2022-11-15T02:01:14;63.20;;;59.00;;
6027;SDS011;3042;43.194;27.646;2022-11-15T02:03:43;68.30;;;63.00;;
6027;SDS011;3042;43.194;27.646;2022-11-15T02:06:14;69.07;;;63.17;;
6027;SDS011;3042;43.194;27.646;2022-11-15T02:08:42;73.97;;;68.07;;
6027;SDS011;3042;43.194;27.646;2022-11-15T02:11:11;65.53;;;60.37;;
6027;SDS011;3042;43.194;27.646;2022-11-15T02:13:39;62.87;;;57.97;;
6027;SDS011;3042;43.194;27.646;2022-11-15T02:16:19;64.60;;;59.53;;
6027;SDS011;3042;43.194;27.646;2022-11-15T02:18:57;58.10;;;54.80;;
6027;SDS011;3042;43.194;27.646;2022-11-15T02:21:31;59.03;;;55.03;;
6027;SDS011;3042;43.194;27.646;2022-11-15T02:24:07;58.47;;;53.10;;
6027;SDS011;3042;43.194;27.646;2022-11-15T02:26:55;62.80;;;58.10;;
6027;SDS011;3042;43.194;27.646;2022-11-15T02:30:01;62.67;;;58.60;;
6027;SDS011;3042;43.194;27.646;2022-11-15T02:32:45;60.20;;;56.70;;
6027;SDS011;3042;43.194;27.646;2022-11-15T02:35:20;64.67;;;59.20;;
6027;SDS011;3042;43.194;27.646;2022-11-15T02:37:56;67.00;;;62.97;;
6027;SDS011;3042;43.194;27.646;2022-11-15T02:40:31;65.70;;;61.60;;
6027;SDS011;3042;43.194;27.646;2022-11-15T02:43:07;62.80;;;58.30;;
6027;SDS011;3042;43.194;27.646;2022-11-15T02:45:56;62.83;;;58.80;;
6027;SDS011;3042;43.194;27.646;2022-11-15T02:48:28;62.00;;;58.10;;
6027;SDS011;3042;43.194;27.646;2022-11-15T02:50:57;65.73;;;61.27;;
6027;SDS011;3042;43.194;27.646;2022-11-15T02:53:26;65.23;;;61.30;;
6027;SDS011;3042;43.194;27.646;2022-11-15T02:55:54;65.50;;;60.70;;
6027;SDS011;3042;43.194;27.646;2022-11-15T02:58:27;60.37;;;56.67;;
6027;SDS011;3042;43.194;27.646;2022-11-15T03:01:23;59.83;;;56.00;;
6027;SDS011;3042;43.194;27.646;2022-11-15T03:04:03;61.63;;;57.60;;
6027;SDS011;3042;43.194;27.646;2022-11-15T03:06:45;65.97;;;61.53;;
6027;SDS011;3042;43.194;27.646;2022-11-15T03:09:27;70.63;;;66.33;;
6027;SDS011;3042;43.194;27.646;2022-11-15T03:12:07;60.47;;;56.67;;
6027;SDS011;3042;43.194;27.646;2022-11-15T03:14:50;59.63;;;55.57;;
6027;SDS011;3042;43.194;27.646;2022-11-15T03:17:32;58.23;;;53.90;;
6027;SDS011;3042;43.194;27.646;2022-11-15T03:20:17;61.60;;;55.70;;
6027;SDS011;3042;43.194;27.646;2022-11-15T03:22:54;58.23;;;54.73;;
6027;SDS011;3042;43.194;27.646;2022-11-15T03:25:32;56.10;;;52.67;;
6027;SDS011;3042;43.194;27.646;2022-11-15T03:28:15;56.93;;;53.63;;
6027;SDS011;3042;43.194;27.646;2022-11-15T03:30:52;57.87;;;54.67;;
6027;SDS011;3042;43.194;27.646;2022-11-15T03:33:25;56.13;;;52.60;;
6027;SDS011;3042;43.194;27.646;2022-11-15T03:35:54;60.13;;;56.63;;
6027;SDS011;3042;43.194;27.646;2022-11-15T03:38:23;62.90;;;56.07;;
6027;SDS011;3042;43.194;27.646;2022-11-15T03:40:53;70.07;;;65.43;;
6027;SDS011;3042;43.194;27.646;2022-11-15T03:43:29;56.73;;;53.03;;
6027;SDS011;3042;43.194;27.646;2022-11-15T03:46:07;54.17;;;50.73;;
6027;SDS011;3042;43.194;27.646;2022-11-15T03:48:46;57.10;;;53.30;;
6027;SDS011;3042;43.194;27.646;2022-11-15T03:51:29;55.13;;;50.43;;
6027;SDS011;3042;43.194;27.646;2022-11-15T03:54:04;55.13;;;51.10;;
6027;SDS011;3042;43.194;27.646;2022-11-15T03:56:41;60.83;;;56.40;;
6027;SDS011;3042;43.194;27.646;2022-11-15T03:59:19;59.77;;;55.97;;
6027;SDS011;3042;43.194;27.646;2022-11-15T04:01:56;61.53;;;57.60;;
6027;SDS011;3042;43.194;27.646;2022-11-15T04:04:31;60.03;;;56.13;;
6027;SDS011;3042;43.194;27.646;2022-11-15T04:07:10;60.47;;;56.53;;
6027;SDS011;3042;43.194;27.646;2022-11-15T04:09:50;57.13;;;52.80;;
6027;SDS011;3042;43.194;27.646;2022-11-15T04:12:33;61.77;;;57.77;;
6027;SDS011;3042;43.194;27.646;2022-11-15T04:15:13;58.73;;;55.27;;
6027;SDS011;3042;43.194;27.646;2022-11-15T04:17:50;61.17;;;57.47;;
6027;SDS011;3042;43.194;27.646;2022-11-15T04:20:26;60.47;;;56.50;;
6027;SDS011;3042;43.194;27.646;2022-11-15T04:23:16;62.73;;;59.03;;
6027;SDS011;3042;43.194;27.646;2022-11-15T04:26:06;58.13;;;54.10;;
6027;SDS011;3042;43.194;27.646;2022-11-15T04:28:42;63.00;;;59.30;;
6027;SDS011;3042;43.194;27.646;2022-11-15T04:31:31;60.17;;;56.67;;
6027;SDS011;3042;43.194;27.646;2022-11-15T04:33:58;56.13;;;52.83;;
6027;SDS011;3042;43.194;27.646;2022-11-15T04:36:27;57.80;;;54.10;;
6027;SDS011;3042;43.194;27.646;2022-11-15T04:39:12;60.00;;;56.10;;
6027;SDS011;3042;43.194;27.646;2022-11-15T04:41:39;55.17;;;51.83;;
6027;SDS011;3042;43.194;27.646;2022-11-15T04:44:06;55.77;;;52.37;;
6027;SDS011;3042;43.194;27.646;2022-11-15T04:46:33;57.90;;;54.50;;
6027;SDS011;3042;43.194;27.646;2022-11-15T04:49:00;53.63;;;50.43;;
6027;SDS011;3042;43.194;27.646;2022-11-15T04:51:29;55.43;;;52.07;;
6027;SDS011;3042;43.194;27.646;2022-11-15T04:53:57;54.50;;;51.20;;
6027;SDS011;3042;43.194;27.646;2022-11-15T04:56:24;52.13;;;48.90;;
6027;SDS011;3042;43.194;27.646;2022-11-15T04:58:51;57.47;;;53.67;;
6027;SDS011;3042;43.194;27.646;2022-11-15T05:01:21;55.77;;;52.20;;
6027;SDS011;3042;43.194;27.646;2022-11-15T05:03:49;56.10;;;52.43;;
6027;SDS011;3042;43.194;27.646;2022-11-15T05:06:35;59.03;;;55.13;;
6027;SDS011;3042;43.194;27.646;2022-11-15T05:09:03;60.37;;;56.27;;
6027;SDS011;3042;43.194;27.646;2022-11-15T05:11:40;58.70;;;54.77;;
6027;SDS011;3042;43.194;27.646;2022-11-15T05:14:29;57.53;;;53.90;;
6027;SDS011;3042;43.194;27.646;2022-11-15T05:16:58;62.57;;;58.57;;
6027;SDS011;3042;43.194;27.646;2022-11-15T05:19:25;58.43;;;54.00;;
6027;SDS011;3042;43.194;27.646;2022-11-15T05:21:53;59.63;;;54.83;;
6027;SDS011;3042;43.194;27.646;2022-11-15T05:24:21;59.07;;;55.00;;
6027;SDS011;3042;43.194;27.646;2022-11-15T05:26:48;63.27;;;57.83;;
6027;SDS011;3042;43.194;27.646;2022-11-15T05:29:15;62.20;;;58.10;;
6027;SDS011;3042;43.194;27.646;2022-11-15T05:31:42;58.90;;;54.50;;
6027;SDS011;3042;43.194;27.646;2022-11-15T05:34:09;61.50;;;55.57;;
6027;SDS011;3042;43.194;27.646;2022-11-15T05:36:37;56.17;;;52.23;;
6027;SDS011;3042;43.194;27.646;2022-11-15T05:39:09;59.37;;;54.63;;
6027;SDS011;3042;43.194;27.646;2022-11-15T05:41:37;56.20;;;52.47;;
6027;SDS011;3042;43.194;27.646;2022-11-15T05:44:09;72.77;;;67.53;;
6027;SDS011;3042;43.194;27.646;2022-11-15T05:46:38;57.87;;;50.80;;
6027;SDS011;3042;43.194;27.646;2022-11-15T05:49:07;59.23;;;53.03;;
6027;SDS011;3042;43.194;27.646;2022-11-15T05:51:39;61.13;;;56.87;;
6027;SDS011;3042;43.194;27.646;2022-11-15T05:54:11;52.83;;;48.40;;
6027;SDS011;3042;43.194;27.646;2022-11-15T05:56:38;56.77;;;52.00;;
6027;SDS011;3042;43.194;27.646;2022-11-15T05:59:06;59.60;;;55.50;;
6027;SDS011;3042;43.194;27.646;2022-11-15T06:01:34;54.33;;;50.20;;
6027;SDS011;3042;43.194;27.646;2022-11-15T06:04:02;52.53;;;49.17;;
6027;SDS011;3042;43.194;27.646;2022-11-15T06:06:29;56.67;;;51.87;;
6027;SDS011;3042;43.194;27.646;2022-11-15T06:08:56;57.30;;;49.97;;
6027;SDS011;3042;43.194;27.646;2022-11-15T06:11:25;51.93;;;48.03;;
6027;SDS011;3042;43.194;27.646;2022-11-15T06:13:52;53.77;;;49.53;;
6027;SDS011;3042;43.194;27.646;2022-11-15T06:16:20;60.03;;;52.80;;
6027;SDS011;3042;43.194;27.646;2022-11-15T06:18:47;50.60;;;47.27;;
6027;SDS011;3042;43.194;27.646;2022-11-15T06:21:14;71.83;;;67.27;;
6027;SDS011;3042;43.194;27.646;2022-11-15T06:23:41;56.87;;;50.93;;
6027;SDS011;3042;43.194;27.646;2022-11-15T06:26:08;64.20;;;47.23;;
6027;SDS011;3042;43.194;27.646;2022-11-15T06:28:37;58.47;;;52.60;;
6027;SDS011;3042;43.194;27.646;2022-11-15T06:31:05;51.43;;;46.20;;
6027;SDS011;3042;43.194;27.646;2022-11-15T06:33:34;49.87;;;45.57;;
6027;SDS011;3042;43.194;27.646;2022-11-15T06:36:02;50.63;;;46.27;;
6027;SDS011;3042;43.194;27.646;2022-11-15T06:38:29;56.73;;;51.67;;
6027;SDS011;3042;43.194;27.646;2022-11-15T06:41:00;54.63;;;50.93;;
6027;SDS011;3042;43.194;27.646;2022-11-15T06:43:29;51.73;;;46.97;;
6027;SDS011;3042;43.194;27.646;2022-11-15T06:45:58;56.57;;;51.40;;
6027;SDS011;3042;43.194;27.646;2022-11-15T06:48:26;57.57;;;52.87;;
6027;SDS011;3042;43.194;27.646;2022-11-15T06:50:54;50.70;;;47.07;;
6027;SDS011;3042;43.194;27.646;2022-11-15T06:53:23;47.67;;;44.73;;
6027;SDS011;3042;43.194;27.646;2022-11-15T06:55:50;49.67;;;45.93;;
6027;SDS011;3042;43.194;27.646;2022-11-15T06:58:20;50.17;;;46.77;;
6027;SDS011;3042;43.194;27.646;2022-11-15T07:00:47;46.67;;;43.77;;
6027;SDS011;3042;43.194;27.646;2022-11-15T07:03:16;51.77;;;48.17;;
6027;SDS011;3042;43.194;27.646;2022-11-15T07:05:50;50.90;;;46.60;;
6027;SDS011;3042;43.194;27.646;2022-11-15T07:08:18;55.70;;;48.10;;
6027;SDS011;3042;43.194;27.646;2022-11-15T07:10:46;52.57;;;48.23;;
6027;SDS011;3042;43.194;27.646;2022-11-15T07:13:13;57.20;;;52.13;;
6027;SDS011;3042;43.194;27.646;2022-11-15T07:15:40;51.13;;;47.03;;
6027;SDS011;3042;43.194;27.646;2022-11-15T07:18:08;54.23;;;45.83;;
6027;SDS011;3042;43.194;27.646;2022-11-15T07:20:36;54.80;;;49.10;;
6027;SDS011;3042;43.194;27.646;2022-11-15T07:23:05;49.50;;;46.50;;
6027;SDS011;3042;43.194;27.646;2022-11-15T07:25:32;46.03;;;43.03;;
6027;SDS011;3042;43.194;27.646;2022-11-15T07:27:59;45.53;;;42.80;;
6027;SDS011;3042;43.194;27.646;2022-11-15T07:30:27;49.33;;;46.13;;
6027;SDS011;3042;43.194;27.646;2022-11-15T07:32:55;50.10;;;46.20;;
6027;SDS011;3042;43.194;27.646;2022-11-15T07:35:23;51.20;;;47.90;;
6027;SDS011;3042;43.194;27.646;2022-11-15T07:37:56;48.27;;;45.23;;
6027;SDS011;3042;43.194;27.646;2022-11-15T07:40:24;49.83;;;45.67;;
6027;SDS011;3042;43.194;27.646;2022-11-15T07:42:52;47.07;;;43.57;;
6027;SDS011;3042;43.194;27.646;2022-11-15T07:45:20;45.90;;;41.80;;
6027;SDS011;3042;43.194;27.646;2022-11-15T07:47:48;49.57;;;46.67;;
6027;SDS011;3042;43.194;27.646;2022-11-15T07:50:16;45.47;;;41.83;;
6027;SDS011;3042;43.194;27.646;2022-11-15T07:52:44;43.77;;;40.93;;
6027;SDS011;3042;43.194;27.646;2022-11-15T07:55:13;48.83;;;45.53;;
6027;SDS011;3042;43.194;27.646;2022-11-15T07:57:40;88.97;;;42.43;;
6027;SDS011;3042;43.194;27.646;2022-11-15T08:00:08;49.43;;;45.53;;
6027;SDS011;3042;43.194;27.646;2022-11-15T08:02:36;45.10;;;41.67;;
6027;SDS011;3042;43.194;27.646;2022-11-15T08:05:03;45.10;;;40.70;;
6027;SDS011;3042;43.194;27.646;2022-11-15T08:07:31;43.50;;;40.60;;
6027;SDS011;3042;43.194;27.646;2022-11-15T08:09:58;41.43;;;38.10;;
6027;SDS011;3042;43.194;27.646;2022-11-15T08:12:28;43.63;;;39.47;;
6027;SDS011;3042;43.194;27.646;2022-11-15T08:14:55;41.23;;;38.40;;
6027;SDS011;3042;43.194;27.646;2022-11-15T08:17:22;43.27;;;40.10;;
6027;SDS011;3042;43.194;27.646;2022-11-15T08:19:50;42.17;;;38.70;;
6027;SDS011;3042;43.194;27.646;2022-11-15T08:22:18;40.10;;;35.20;;
6027;SDS011;3042;43.194;27.646;2022-11-15T08:24:45;47.17;;;40.93;;
6027;SDS011;3042;43.194;27.646;2022-11-15T08:27:13;41.30;;;37.83;;
6027;SDS011;3042;43.194;27.646;2022-11-15T08:29:43;41.50;;;38.60;;
6027;SDS011;3042;43.194;27.646;2022-11-15T08:32:11;91.00;;;43.70;;
6027;SDS011;3042;43.194;27.646;2022-11-15T08:34:38;40.97;;;37.87;;
6027;SDS011;3042;43.194;27.646;2022-11-15T08:37:05;37.33;;;34.50;;
6027;SDS011;3042;43.194;27.646;2022-11-15T08:39:33;40.53;;;36.87;;
6027;SDS011;3042;43.194;27.646;2022-11-15T08:42:00;41.03;;;36.40;;
6027;SDS011;3042;43.194;27.646;2022-11-15T08:44:27;39.40;;;36.17;;
6027;SDS011;3042;43.194;27.646;2022-11-15T08:46:56;42.07;;;35.17;;
6027;SDS011;3042;43.194;27.646;2022-11-15T08:49:23;36.13;;;33.53;;
6027;SDS011;3042;43.194;27.646;2022-11-15T08:51:50;35.63;;;32.63;;
6027;SDS011;3042;43.194;27.646;2022-11-15T08:54:17;46.07;;;34.43;;
6027;SDS011;3042;43.194;27.646;2022-11-15T08:56:45;38.53;;;33.73;;
6027;SDS011;3042;43.194;27.646;2022-11-15T08:59:12;36.13;;;33.47;;
6027;SDS011;3042;43.194;27.646;2022-11-15T09:01:39;33.50;;;31.10;;
6027;SDS011;3042;43.194;27.646;2022-11-15T09:04:08;40.13;;;31.83;;
6027;SDS011;3042;43.194;27.646;2022-11-15T09:06:35;50.13;;;34.87;;
6027;SDS011;3042;43.194;27.646;2022-11-15T09:09:03;36.40;;;32.50;;
6027;SDS011;3042;43.194;27.646;2022-11-15T09:11:31;72.43;;;36.07;;
6027;SDS011;3042;43.194;27.646;2022-11-15T09:13:59;54.33;;;36.47;;
6027;SDS011;3042;43.194;27.646;2022-11-15T09:16:26;33.80;;;31.00;;
6027;SDS011;3042;43.194;27.646;2022-11-15T09:18:53;61.53;;;32.70;;
6027;SDS011;3042;43.194;27.646;2022-11-15T09:21:22;55.57;;;48.97;;
6027;SDS011;3042;43.194;27.646;2022-11-15T09:23:50;33.93;;;31.40;;
6027;SDS011;3042;43.194;27.646;2022-11-15T09:26:18;32.90;;;30.53;;
6027;SDS011;3042;43.194;27.646;2022-11-15T09:28:45;37.90;;;34.80;;
6027;SDS011;3042;43.194;27.646;2022-11-15T09:31:12;87.13;;;37.20;;
6027;SDS011;3042;43.194;27.646;2022-11-15T09:33:39;48.90;;;34.70;;
6027;SDS011;3042;43.194;27.646;2022-11-15T09:36:09;54.37;;;33.47;;
6027;SDS011;3042;43.194;27.646;2022-11-15T09:38:38;38.73;;;35.33;;
6027;SDS011;3042;43.194;27.646;2022-11-15T09:41:13;40.03;;;31.73;;
6027;SDS011;3042;43.194;27.646;2022-11-15T09:44:08;32.17;;;30.07;;
6027;SDS011;3042;43.194;27.646;2022-11-15T09:46:51;32.07;;;29.77;;
6027;SDS011;3042;43.194;27.646;2022-11-15T09:49:29;33.50;;;29.90;;
6027;SDS011;3042;43.194;27.646;2022-11-15T09:51:57;35.27;;;31.30;;
6027;SDS011;3042;43.194;27.646;2022-11-15T09:54:30;52.50;;;37.40;;
6027;SDS011;3042;43.194;27.646;2022-11-15T09:57:03;32.67;;;29.87;;
6027;SDS011;3042;43.194;27.646;2022-11-15T09:59:37;27.67;;;25.90;;
6027;SDS011;3042;43.194;27.646;2022-11-15T10:02:22;29.70;;;27.60;;
6027;SDS011;3042;43.194;27.646;2022-11-15T10:04:59;30.27;;;28.00;;
6027;SDS011;3042;43.194;27.646;2022-11-15T10:07:30;30.87;;;27.83;;
6027;SDS011;3042;43.194;27.646;2022-11-15T10:10:13;30.93;;;28.80;;
6027;SDS011;3042;43.194;27.646;2022-11-15T10:12:47;31.70;;;28.83;;
6027;SDS011;3042;43.194;27.646;2022-11-15T10:15:18;29.57;;;27.53;;
6027;SDS011;3042;43.194;27.646;2022-11-15T10:17:57;33.00;;;30.67;;
6027;SDS011;3042;43.194;27.646;2022-11-15T10:20:44;32.50;;;29.87;;
6027;SDS011;3042;43.194;27.646;2022-11-15T10:23:15;28.23;;;26.53;;
6027;SDS011;3042;43.194;27.646;2022-11-15T10:25:46;47.40;;;30.77;;
6027;SDS011;3042;43.194;27.646;2022-11-15T10:28:14;30.77;;;28.47;;
6027;SDS011;3042;43.194;27.646;2022-11-15T10:30:44;28.73;;;26.40;;
6027;SDS011;3042;43.194;27.646;2022-11-15T10:36:14;27.53;;;25.10;;
6027;SDS011;3042;43.194;27.646;2022-11-15T10:38:52;27.97;;;26.27;;
6027;SDS011;3042;43.194;27.646;2022-11-15T10:41:22;28.50;;;26.60;;
6027;SDS011;3042;43.194;27.646;2022-11-15T10:44:02;30.13;;;28.10;;
6027;SDS011;3042;43.194;27.646;2022-11-15T10:46:38;28.37;;;26.53;;
6027;SDS011;3042;43.194;27.646;2022-11-15T10:49:12;31.27;;;29.03;;
6027;SDS011;3042;43.194;27.646;2022-11-15T10:51:42;45.10;;;33.73;;
6027;SDS011;3042;43.194;27.646;2022-11-15T10:54:13;38.13;;;30.73;;
6027;SDS011;3042;43.194;27.646;2022-11-15T10:56:49;30.07;;;27.27;;
6027;SDS011;3042;43.194;27.646;2022-11-15T10:59:20;41.60;;;32.77;;
6027;SDS011;3042;43.194;27.646;2022-11-15T11:01:52;50.03;;;33.80;;
6027;SDS011;3042;43.194;27.646;2022-11-15T11:04:20;33.63;;;30.90;;
6027;SDS011;3042;43.194;27.646;2022-11-15T11:06:47;32.93;;;30.07;;
6027;SDS011;3042;43.194;27.646;2022-11-15T11:09:23;39.60;;;35.70;;
6027;SDS011;3042;43.194;27.646;2022-11-15T11:11:56;42.50;;;34.97;;
6027;SDS011;3042;43.194;27.646;2022-11-15T11:14:25;37.87;;;33.67;;
6027;SDS011;3042;43.194;27.646;2022-11-15T11:16:57;30.17;;;27.87;;
6027;SDS011;3042;43.194;27.646;2022-11-15T11:19:49;30.67;;;27.80;;
6027;SDS011;3042;43.194;27.646;2022-11-15T11:22:25;32.60;;;29.67;;
6027;SDS011;3042;43.194;27.646;2022-11-15T11:25:07;29.17;;;26.77;;
6027;SDS011;3042;43.194;27.646;2022-11-15T11:27:50;28.73;;;26.43;;
6027;SDS011;3042;43.194;27.646;2022-11-15T11:30:32;33.13;;;29.00;;
6027;SDS011;3042;43.194;27.646;2022-11-15T11:33:10;28.20;;;25.87;;
6027;SDS011;3042;43.194;27.646;2022-11-15T11:35:49;27.27;;;25.40;;
6027;SDS011;3042;43.194;27.646;2022-11-15T11:38:34;27.87;;;26.13;;
6027;SDS011;3042;43.194;27.646;2022-11-15T11:41:13;30.63;;;27.63;;
6027;SDS011;3042;43.194;27.646;2022-11-15T11:43:51;24.93;;;23.53;;
6027;SDS011;3042;43.194;27.646;2022-11-15T11:46:38;31.23;;;28.53;;
6027;SDS011;3042;43.194;27.646;2022-11-15T11:49:21;40.90;;;28.50;;
6027;SDS011;3042;43.194;27.646;2022-11-15T11:51:55;54.07;;;34.73;;
6027;SDS011;3042;43.194;27.646;2022-11-15T11:54:31;45.37;;;26.53;;
6027;SDS011;3042;43.194;27.646;2022-11-15T11:57:05;29.53;;;27.53;;
6027;SDS011;3042;43.194;27.646;2022-11-15T11:59:41;31.67;;;29.37;;
6027;SDS011;3042;43.194;27.646;2022-11-15T12:02:14;27.20;;;25.07;;
6027;SDS011;3042;43.194;27.646;2022-11-15T12:04:46;31.27;;;27.87;;
6027;SDS011;3042;43.194;27.646;2022-11-15T12:07:17;28.37;;;26.47;;
6027;SDS011;3042;43.194;27.646;2022-11-15T12:09:51;29.27;;;27.30;;
6027;SDS011;3042;43.194;27.646;2022-11-15T12:12:27;28.37;;;26.37;;
6027;SDS011;3042;43.194;27.646;2022-11-15T12:15:00;31.67;;;27.63;;
6027;SDS011;3042;43.194;27.646;2022-11-15T12:17:30;30.03;;;27.07;;
6027;SDS011;3042;43.194;27.646;2022-11-15T12:19:58;34.57;;;27.37;;
6027;SDS011;3042;43.194;27.646;2022-11-15T12:22:33;38.17;;;35.57;;
6027;SDS011;3042;43.194;27.646;2022-11-15T12:25:07;28.47;;;25.90;;
6027;SDS011;3042;43.194;27.646;2022-11-15T12:27:42;50.43;;;29.50;;
6027;SDS011;3042;43.194;27.646;2022-11-15T12:30:15;29.43;;;26.40;;
6027;SDS011;3042;43.194;27.646;2022-11-15T12:32:49;30.97;;;28.00;;
6027;SDS011;3042;43.194;27.646;2022-11-15T12:35:27;84.47;;;31.90;;
6027;SDS011;3042;43.194;27.646;2022-11-15T12:37:58;33.57;;;30.30;;
6027;SDS011;3042;43.194;27.646;2022-11-15T12:40:35;29.90;;;27.50;;
6027;SDS011;3042;43.194;27.646;2022-11-15T12:43:05;70.60;;;29.33;;
6027;SDS011;3042;43.194;27.646;2022-11-15T12:45:54;30.17;;;27.30;;
6027;SDS011;3042;43.194;27.646;2022-11-15T12:57:31;28.97;;;26.30;;
6027;SDS011;3042;43.194;27.646;2022-11-15T13:00:00;34.63;;;26.33;;
6027;SDS011;3042;43.194;27.646;2022-11-15T13:02:33;29.63;;;27.40;;
6027;SDS011;3042;43.194;27.646;2022-11-15T13:08:34;30.30;;;27.43;;
6027;SDS011;3042;43.194;27.646;2022-11-15T13:17:10;32.93;;;28.30;;
6027;SDS011;3042;43.194;27.646;2022-11-15T13:19:53;101.27;;;35.63;;
6027;SDS011;3042;43.194;27.646;2022-11-15T13:22:25;34.50;;;29.50;;
6027;SDS011;3042;43.194;27.646;2022-11-15T13:25:16;30.30;;;27.50;;
6027;SDS011;3042;43.194;27.646;2022-11-15T13:27:48;212.87;;;38.00;;
6027;SDS011;3042;43.194;27.646;2022-11-15T13:30:19;47.67;;;32.00;;
6027;SDS011;3042;43.194;27.646;2022-11-15T13:32:47;31.67;;;28.47;;
6027;SDS011;3042;43.194;27.646;2022-11-15T13:35:20;53.30;;;29.87;;
6027;SDS011;3042;43.194;27.646;2022-11-15T13:37:49;133.27;;;34.70;;
6027;SDS011;3042;43.194;27.646;2022-11-15T13:40:24;135.37;;;33.87;;
6027;SDS011;3042;43.194;27.646;2022-11-15T13:42:55;238.17;;;39.33;;
6027;SDS011;3042;43.194;27.646;2022-11-15T13:45:23;233.53;;;41.57;;
6027;SDS011;3042;43.194;27.646;2022-11-15T13:47:53;197.60;;;55.87;;
6027;SDS011;3042;43.194;27.646;2022-11-15T13:50:24;59.07;;;33.23;;
6027;SDS011;3042;43.194;27.646;2022-11-15T13:52:55;77.67;;;34.23;;
6027;SDS011;3042;43.194;27.646;2022-11-15T13:55:26;110.27;;;39.00;;
6027;SDS011;3042;43.194;27.646;2022-11-15T13:57:54;134.70;;;36.47;;
6027;SDS011;3042;43.194;27.646;2022-11-15T14:00:26;141.30;;;42.87;;
6027;SDS011;3042;43.194;27.646;2022-11-15T14:03:06;73.30;;;34.20;;
6027;SDS011;3042;43.194;27.646;2022-11-15T14:05:42;75.60;;;35.90;;
6027;SDS011;3042;43.194;27.646;2022-11-15T14:08:20;83.77;;;33.83;;
6027;SDS011;3042;43.194;27.646;2022-11-15T14:10:50;68.70;;;35.83;;
6027;SDS011;3042;43.194;27.646;2022-11-15T14:13:33;36.77;;;33.17;;
6027;SDS011;3042;43.194;27.646;2022-11-15T14:16:12;57.60;;;34.40;;
6027;SDS011;3042;43.194;27.646;2022-11-15T14:18:41;41.90;;;34.10;;
6027;SDS011;3042;43.194;27.646;2022-11-15T14:21:12;70.60;;;37.80;;
6027;SDS011;3042;43.194;27.646;2022-11-15T14:23:40;55.20;;;49.67;;
6027;SDS011;3042;43.194;27.646;2022-11-15T14:26:22;39.30;;;36.27;;
6027;SDS011;3042;43.194;27.646;2022-11-15T14:28:53;36.63;;;34.03;;
6027;SDS011;3042;43.194;27.646;2022-11-15T14:31:20;91.87;;;38.50;;
6027;SDS011;3042;43.194;27.646;2022-11-15T14:33:48;66.57;;;36.27;;
6027;SDS011;3042;43.194;27.646;2022-11-15T14:36:17;63.17;;;35.90;;
6027;SDS011;3042;43.194;27.646;2022-11-15T14:38:46;44.00;;;40.00;;
6027;SDS011;3042;43.194;27.646;2022-11-15T14:41:17;39.00;;;35.60;;
6027;SDS011;3042;43.194;27.646;2022-11-15T14:43:46;89.23;;;41.47;;
6027;SDS011;3042;43.194;27.646;2022-11-15T14:46:13;42.20;;;39.20;;
6027;SDS011;3042;43.194;27.646;2022-11-15T14:48:40;39.10;;;35.70;;
6027;SDS011;3042;43.194;27.646;2022-11-15T14:51:11;50.90;;;40.53;;
6027;SDS011;3042;43.194;27.646;2022-11-15T14:53:41;39.27;;;35.70;;
6027;SDS011;3042;43.194;27.646;2022-11-15T14:56:09;44.17;;;41.00;;
6027;SDS011;3042;43.194;27.646;2022-11-15T14:58:37;43.00;;;39.20;;
6027;SDS011;3042;43.194;27.646;2022-11-15T15:01:09;58.47;;;39.00;;
6027;SDS011;3042;43.194;27.646;2022-11-15T15:03:40;42.27;;;38.87;;
6027;SDS011;3042;43.194;27.646;2022-11-15T15:06:09;41.07;;;37.60;;
6027;SDS011;3042;43.194;27.646;2022-11-15T15:08:38;45.37;;;42.17;;
6027;SDS011;3042;43.194;27.646;2022-11-15T15:11:09;47.77;;;39.77;;
6027;SDS011;3042;43.194;27.646;2022-11-15T15:13:40;52.63;;;39.60;;
6027;SDS011;3042;43.194;27.646;2022-11-15T15:16:08;45.43;;;41.80;;
6027;SDS011;3042;43.194;27.646;2022-11-15T15:18:35;48.13;;;43.13;;
6027;SDS011;3042;43.194;27.646;2022-11-15T15:21:04;106.10;;;48.33;;
6027;SDS011;3042;43.194;27.646;2022-11-15T15:23:47;45.93;;;42.17;;